Time;durP1;ratioP1;P1;durP2;ratioP2;P2;SDS_P1;SDS_P2;PMS_P1;PMS_P2;Temp;Humidity;BMP_temperature;BMP_pressure;BME280_temperature;BME280_humidity;BME280_pressure;Samples;Min_cycle;Max_cycle;Signal;HPM_P1;HPM_P2
2022/05/20 00:00:45;;;;;;;;;;;;;;;;;;5127876;27;19945;-71
2022/05/20 00:03:11;;;;;;;;;;;;;;;;;;5126196;28;19923;-71
2022/05/20 00:05:37;;;;;;;;;;;;;;;;;;5131989;27;19970;-72
2022/05/20 00:08:02;;;;;;;;;;;;;;;;;;5131693;27;19923;-72
2022/05/20 00:10:28;;;;;;;;;;;;;;;;;;5126967;28;19927;-70
2022/05/20 00:12:54;;;;;;;;;;;;;;;;;;5127501;28;19919;-72
2022/05/20 00:15:20;;;;;;;;;;;;;;;;;;5126981;27;19919;-71
2022/05/20 00:17:46;;;;;;;;;;;;;;;;;;5128740;27;19951;-70
2022/05/20 00:20:12;;;;;;;;;;;;;;;;;;5126773;28;19920;-72
2022/05/20 00:22:38;;;;;;;;;;;;;;;;;;5126815;28;19950;-71
2022/05/20 00:27:49;;;;;;;;;;;;;;;;;;5107007;28;19931;-71
2022/05/20 00:30:15;;;;;;;;;;;;;;;;;;5106736;28;19920;-71
2022/05/20 00:32:41;;;;;;;;;;;;;;;;;;5088530;28;20002;-71
2022/05/20 00:35:07;;;;;;;;;;;;;;;;;;5107075;28;19927;-72
2022/05/20 00:37:33;;;;;;;;;;;;;;;;;;5127779;27;19923;-72
2022/05/20 00:39:59;;;;;;;;;;;;;;;;;;5147995;27;20010;-72
2022/05/20 00:42:25;;;;;;;;;;;;;;;;;;5129663;27;19919;-70
2022/05/20 00:44:51;;;;;;;;;;;;;;;;;;5147550;27;19923;-71
2022/05/20 00:47:17;;;;;;;;;;;;;;;;;;5146215;27;20009;-71
2022/05/20 00:49:43;;;;;;;;;;;;;;;;;;5147927;27;19919;-71
2022/05/20 00:52:09;;;;;;;;;;;;;;;;;;5129352;27;19932;-71
2022/05/20 00:54:35;;;;;;;;;;;;;;;;;;5147854;27;19940;-71
2022/05/20 00:57:01;;;;;;;;;;;;;;;;;;5146067;27;19920;-71
2022/05/20 00:59:28;;;;;;;;;;;;;;;;;;5147636;27;19920;-71
2022/05/20 01:01:54;;;;;;;;;;;;;;;;;;5147345;27;19927;-70
2022/05/20 01:04:20;;;;;;;;;;;;;;;;;;5147568;27;20290;-71
2022/05/20 01:06:46;;;;;;;;;;;;;;;;;;5145934;27;19930;-71
2022/05/20 01:09:12;;;;;;;;;;;;;;;;;;5147653;27;19933;-71
2022/05/20 01:11:37;;;;;;;;;;;;;;;;;;5147500;27;19923;-71
2022/05/20 01:14:03;;;;;;;;;;;;;;;;;;5143578;27;19930;-71
2022/05/20 01:16:29;;;;;;;;;;;;;;;;;;5147384;27;19923;-71
2022/05/20 01:18:57;;;;;;;;;;;;;;;;;;5147354;27;19964;-71
2022/05/20 01:21:23;;;;;;;;;;;;;;;;;;5147369;27;19923;-71
2022/05/20 01:23:48;;;;;;;;;;;;;;;;;;5145667;27;19930;-71
2022/05/20 01:26:14;;;;;;;;;;;;;;;;;;5147027;27;19919;-71
2022/05/20 01:28:40;;;;;;;;;;;;;;;;;;5128530;27;19965;-70
2022/05/20 01:31:06;;;;;;;;;;;;;;;;;;5147005;27;19919;-71
2022/05/20 01:33:32;;;;;;;;;;;;;;;;;;5144256;27;19919;-69
2022/05/20 01:35:58;;;;;;;;;;;;;;;;;;5145704;27;19959;-71
2022/05/20 01:38:24;;;;;;;;;;;;;;;;;;5146698;27;19919;-71
2022/05/20 01:40:50;;;;;;;;;;;;;;;;;;5146672;27;19919;-71
2022/05/20 01:43:16;;;;;;;;;;;;;;;;;;5146694;27;19923;-71
2022/05/20 01:45:42;;;;;;;;;;;;;;;;;;5144858;27;19944;-70
2022/05/20 01:48:08;;;;;;;;;;;;;;;;;;5146815;27;19924;-71
2022/05/20 01:50:34;;;;;;;;;;;;;;;;;;5127948;27;19919;-71
2022/05/20 01:53:00;;;;;;;;;;;;;;;;;;5144481;27;19919;-71
2022/05/20 01:55:26;;;;;;;;;;;;;;;;;;5127458;27;19998;-70
2022/05/20 01:57:52;;;;;;;;;;;;;;;;;;5146451;27;19919;-70
2022/05/20 02:00:18;;;;;;;;;;;;;;;;;;5122580;27;19920;-71
2022/05/20 02:02:44;;;;;;;;;;;;;;;;;;5118661;27;19963;-71
2022/05/20 02:05:10;;;;;;;;;;;;;;;;;;5146377;27;19941;-71
2022/05/20 02:07:36;;;;;;;;;;;;;;;;;;5127987;28;19919;-71
2022/05/20 02:10:02;;;;;;;;;;;;;;;;;;5145162;27;20259;-71
2022/05/20 02:12:28;;;;;;;;;;;;;;;;;;5144751;28;19919;-71
2022/05/20 02:14:54;;;;;;;;;;;;;;;;;;5146214;28;19971;-70
2022/05/20 02:17:20;;;;;;;;;;;;;;;;;;5146211;28;20338;-70
2022/05/20 02:19:47;;;;;;;;;;;;;;;;;;5146110;28;19926;-70
2022/05/20 02:22:13;;;;;;;;;;;;;;;;;;5144421;28;20373;-70
2022/05/20 02:24:39;;;;;;;;;;;;;;;;;;5146339;28;19920;-70
2022/05/20 02:27:05;;;;;;;;;;;;;;;;;;5146132;28;19923;-70
2022/05/20 02:29:31;;;;;;;;;;;;;;;;;;5146070;28;19930;-70
2022/05/20 02:31:57;;;;;;;;;;;;;;;;;;5145729;28;20298;-70
2022/05/20 02:34:23;;;;;;;;;;;;;;;;;;5143726;28;19941;-70
2022/05/20 02:36:49;;;;;;;;;;;;;;;;;;5146178;28;19919;-71
2022/05/20 02:39:15;;;;;;;;;;;;;;;;;;5145962;28;19926;-71
2022/05/20 02:41:41;;;;;;;;;;;;;;;;;;5146014;28;20060;-71
2022/05/20 02:44:07;;;;;;;;;;;;;;;;;;5141271;28;19941;-71
2022/05/20 02:46:32;;;;;;;;;;;;;;;;;;5145770;28;19955;-71
2022/05/20 02:48:58;;;;;;;;;;;;;;;;;;5146113;28;19919;-71
2022/05/20 02:51:24;;;;;;;;;;;;;;;;;;5146049;28;19919;-71
2022/05/20 02:53:50;;;;;;;;;;;;;;;;;;5144134;28;19962;-71
2022/05/20 02:56:16;;;;;;;;;;;;;;;;;;5127493;28;19927;-70
2022/05/20 03:04:13;;;;;;;;;;;;;;;;;;5142883;28;19974;-71
2022/05/20 03:06:39;;;;;;;;;;;;;;;;;;5146543;27;19933;-71
2022/05/20 03:09:05;;;;;;;;;;;;;;;;;;5147661;27;19982;-71
2022/05/20 03:11:31;;;;;;;;;;;;;;;;;;5149599;27;19919;-70
2022/05/20 03:13:56;;;;;;;;;;;;;;;;;;5149757;27;19919;-71
2022/05/20 03:16:22;;;;;;;;;;;;;;;;;;5149411;27;19919;-71
2022/05/20 03:18:48;;;;;;;;;;;;;;;;;;5147824;27;19920;-70
2022/05/20 03:21:14;;;;;;;;;;;;;;;;;;5149458;27;19919;-71
2022/05/20 03:23:40;;;;;;;;;;;;;;;;;;5149299;27;19919;-72
2022/05/20 03:26:06;;;;;;;;;;;;;;;;;;5149328;27;19920;-71
2022/05/20 03:28:34;;;;;;;;;;;;;;;;;;5149349;27;19919;-71
2022/05/20 03:30:59;;;;;;;;;;;;;;;;;;5147100;27;19923;-71
2022/05/20 03:33:26;;;;;;;;;;;;;;;;;;5149014;27;19919;-71
2022/05/20 03:35:54;;;;;;;;;;;;;;;;;;5149124;27;19968;-72
2022/05/20 03:38:20;;;;;;;;;;;;;;;;;;5148915;27;19919;-71
2022/05/20 03:40:46;;;;;;;;;;;;;;;;;;5142135;27;20420;-71
2022/05/20 03:43:12;;;;;;;;;;;;;;;;;;5149234;27;19919;-72
2022/05/20 03:45:39;;;;;;;;;;;;;;;;;;5148801;27;19923;-71
2022/05/20 03:48:05;;;;;;;;;;;;;;;;;;5149163;27;19926;-72
2022/05/20 03:50:32;;;;;;;;;;;;;;;;;;5146902;27;19946;-70
2022/05/20 03:52:59;;;;;;;;;;;;;;;;;;5148867;27;19927;-71
2022/05/20 03:55:25;;;;;;;;;;;;;;;;;;5130414;27;19941;-71
2022/05/20 03:57:51;;;;;;;;;;;;;;;;;;5148659;27;19963;-71
2022/05/20 04:00:17;;;;;;;;;;;;;;;;;;5141539;27;19919;-72
2022/05/20 04:02:43;;;;;;;;;;;;;;;;;;5127821;28;20349;-72
2022/05/20 04:05:09;;;;;;;;;;;;;;;;;;5128143;28;19919;-72
2022/05/20 04:07:35;;;;;;;;;;;;;;;;;;5127876;28;19965;-73
2022/05/20 04:10:02;;;;;;;;;;;;;;;;;;5125957;28;19941;-72
2022/05/20 04:12:28;;;;;;;;;;;;;;;;;;5127786;28;19926;-72
2022/05/20 04:14:55;;;;;;;;;;;;;;;;;;5127793;28;19916;-72
2022/05/20 04:17:21;;;;;;;;;;;;;;;;;;5127625;28;19994;-71
2022/05/20 04:19:47;;;;;;;;;;;;;;;;;;5106699;28;19932;-72
2022/05/20 04:22:13;;;;;;;;;;;;;;;;;;5127474;28;19931;-71
2022/05/20 04:24:39;;;;;;;;;;;;;;;;;;5127835;28;20295;-72
2022/05/20 04:27:05;;;;;;;;;;;;;;;;;;5127626;28;19926;-71
2022/05/20 04:29:31;;;;;;;;;;;;;;;;;;5125561;28;19983;-72
2022/05/20 04:31:57;;;;;;;;;;;;;;;;;;5127373;28;19920;-72
2022/05/20 04:34:23;;;;;;;;;;;;;;;;;;5127192;28;19949;-71
2022/05/20 04:36:49;;;;;;;;;;;;;;;;;;5127244;28;19995;-71
2022/05/20 04:39:15;;;;;;;;;;;;;;;;;;5127182;28;19927;-71
2022/05/20 04:47:10;;;;;;;;;;;;;;;;;;5127137;28;19977;-71
2022/05/20 04:49:36;;;;;;;;;;;;;;;;;;5125422;28;19967;-71
2022/05/20 04:52:02;;;;;;;;;;;;;;;;;;5127138;28;19919;-72
2022/05/20 04:57:13;;;;;;;;;;;;;;;;;;5126957;28;19927;-73
2022/05/20 04:59:39;;;;;;;;;;;;;;;;;;5125054;28;19919;-73
2022/05/20 05:02:04;;;;;;;;;;;;;;;;;;5126549;28;19919;-72
2022/05/20 05:04:30;;;;;;;;;;;;;;;;;;5126672;28;19926;-73
2022/05/20 05:06:56;;;;;;;;;;;;;;;;;;5126822;28;19919;-73
2022/05/20 05:09:22;;;;;;;;;;;;;;;;;;5126718;28;19926;-73
2022/05/20 05:11:49;;;;;;;;;;;;;;;;;;5124760;28;19935;-73
2022/05/20 05:14:15;;;;;;;;;;;;;;;;;;5126577;28;19927;-73
2022/05/20 05:16:41;;;;;;;;;;;;;;;;;;5126310;28;19919;-73
2022/05/20 05:19:06;;;;;;;;;;;;;;;;;;5126565;28;19938;-73
2022/05/20 05:21:32;;;;;;;;;;;;;;;;;;5124773;28;19919;-73
2022/05/20 05:24:01;;;;;;;;;;;;;;;;;;5126522;28;19925;-73
2022/05/20 05:26:27;;;;;;;;;;;;;;;;;;5126451;28;19919;-73
2022/05/20 05:28:53;;;;;;;;;;;;;;;;;;5126233;28;20421;-72
2022/05/20 05:31:19;;;;;;;;;;;;;;;;;;5124216;28;19970;-72
2022/05/20 05:33:45;;;;;;;;;;;;;;;;;;5126222;28;19935;-72
2022/05/20 05:36:12;;;;;;;;;;;;;;;;;;5119708;28;19980;-73
2022/05/20 05:38:37;;;;;;;;;;;;;;;;;;5101983;28;19938;-72
2022/05/20 05:41:03;;;;;;;;;;;;;;;;;;5104190;28;20002;-73
2022/05/20 05:43:29;;;;;;;;;;;;;;;;;;5097620;28;19920;-73
2022/05/20 05:45:55;;;;;;;;;;;;;;;;;;5116524;28;19920;-73
2022/05/20 05:48:21;;;;;;;;;;;;;;;;;;5084278;28;19921;-73
2022/05/20 05:50:47;;;;;;;;;;;;;;;;;;5109512;28;19920;-73
2022/05/20 05:53:13;;;;;;;;;;;;;;;;;;5114514;28;19930;-73
2022/05/20 05:55:39;;;;;;;;;;;;;;;;;;5087122;28;19928;-73
2022/05/20 05:58:05;;;;;;;;;;;;;;;;;;5106705;28;19919;-73
2022/05/20 06:00:31;;;;;;;;;;;;;;;;;;5103077;28;19953;-72
2022/05/20 06:02:57;;;;;;;;;;;;;;;;;;5106114;28;19995;-73
2022/05/20 06:05:23;;;;;;;;;;;;;;;;;;5086304;28;20382;-72
2022/05/20 06:07:51;;;;;;;;;;;;;;;;;;5106556;28;19920;-72
2022/05/20 06:10:17;;;;;;;;;;;;;;;;;;5091425;28;19923;-72
2022/05/20 06:12:43;;;;;;;;;;;;;;;;;;5103551;28;19924;-74
2022/05/20 06:15:09;;;;;;;;;;;;;;;;;;5104584;28;19920;-72
2022/05/20 06:17:35;;;;;;;;;;;;;;;;;;5115593;28;19920;-73
2022/05/20 06:20:01;;;;;;;;;;;;;;;;;;5103460;28;19950;-73
2022/05/20 06:22:27;;;;;;;;;;;;;;;;;;5101479;28;19931;-73
2022/05/20 06:24:53;;;;;;;;;;;;;;;;;;5097145;28;19920;-73
2022/05/20 06:27:19;;;;;;;;;;;;;;;;;;5121131;28;19978;-72
2022/05/20 06:29:45;;;;;;;;;;;;;;;;;;5122223;28;19920;-73
2022/05/20 06:32:11;;;;;;;;;;;;;;;;;;5125396;28;19919;-73
2022/05/20 06:40:06;;;;;;;;;;;;;;;;;;5119696;28;19941;-73
2022/05/20 06:42:32;;;;;;;;;;;;;;;;;;5127529;28;19919;-73
2022/05/20 06:44:58;;;;;;;;;;;;;;;;;;5129625;28;19977;-73
2022/05/20 06:47:24;;;;;;;;;;;;;;;;;;5129114;28;20298;-73
2022/05/20 06:49:50;;;;;;;;;;;;;;;;;;5126090;28;19931;-73
2022/05/20 06:52:16;;;;;;;;;;;;;;;;;;5129358;28;19919;-74
2022/05/20 06:54:42;;;;;;;;;;;;;;;;;;5129631;28;19926;-74
2022/05/20 06:57:08;;;;;;;;;;;;;;;;;;5129186;28;19934;-74
2022/05/20 06:59:34;;;;;;;;;;;;;;;;;;5125724;28;19988;-73
2022/05/20 07:02:01;;;;;;;;;;;;;;;;;;5128897;28;19941;-73
2022/05/20 07:04:29;;;;;;;;;;;;;;;;;;5129125;28;19923;-73
2022/05/20 07:06:55;;;;;;;;;;;;;;;;;;5129121;28;19926;-72
2022/05/20 07:09:21;;;;;;;;;;;;;;;;;;5127103;28;19967;-72
2022/05/20 07:11:47;;;;;;;;;;;;;;;;;;5128790;28;19974;-71
2022/05/20 07:14:13;;;;;;;;;;;;;;;;;;5129005;28;19958;-74
2022/05/20 07:16:39;;;;;;;;;;;;;;;;;;5097914;28;19927;-73
2022/05/20 07:19:05;;;;;;;;;;;;;;;;;;5114662;28;19920;-73
2022/05/20 07:21:31;;;;;;;;;;;;;;;;;;5127511;28;19920;-73
2022/05/20 07:23:57;;;;;;;;;;;;;;;;;;5128976;28;19919;-73
2022/05/20 07:26:23;;;;;;;;;;;;;;;;;;5128934;28;19920;-72
2022/05/20 07:28:49;;;;;;;;;;;;;;;;;;5114552;28;19920;-73
2022/05/20 07:31:17;;;;;;;;;;;;;;;;;;5112252;28;19920;-72
2022/05/20 07:33:43;;;;;;;;;;;;;;;;;;5108193;28;19920;-72
2022/05/20 07:36:09;;;;;;;;;;;;;;;;;;5108084;28;19966;-72
2022/05/20 07:38:35;;;;;;;;;;;;;;;;;;5076020;28;19924;-72
2022/05/20 07:41:01;;;;;;;;;;;;;;;;;;5105435;28;19919;-74
2022/05/20 07:43:27;;;;;;;;;;;;;;;;;;5128684;28;19926;-72
2022/05/20 07:45:53;;;;;;;;;;;;;;;;;;5128546;28;19920;-72
2022/05/20 07:48:19;;;;;;;;;;;;;;;;;;5091819;28;19920;-72
2022/05/20 07:50:45;;;;;;;;;;;;;;;;;;5109961;28;19970;-72
2022/05/20 07:53:21;;;;;;;;;;;;;;;;;;5114819;28;19920;-72
2022/05/20 07:55:47;;;;;;;;;;;;;;;;;;5112580;28;19920;-73
2022/05/20 07:58:13;;;;;;;;;;;;;;;;;;5109029;28;20023;-72
2022/05/20 08:00:39;;;;;;;;;;;;;;;;;;5106699;28;20359;-70
2022/05/20 08:03:05;;;;;;;;;;;;;;;;;;5100382;28;19935;-73
2022/05/20 08:05:31;;;;;;;;;;;;;;;;;;5097169;28;19920;-72
2022/05/20 08:07:59;;;;;;;;;;;;;;;;;;5107847;28;19926;-72
2022/05/20 08:10:25;;;;;;;;;;;;;;;;;;5106956;28;19927;-73
2022/05/20 08:12:52;;;;;;;;;;;;;;;;;;5106306;28;19920;-73
2022/05/20 08:15:18;;;;;;;;;;;;;;;;;;5092739;28;19931;-63
2022/05/20 08:17:44;;;;;;;;;;;;;;;;;;5092953;28;19920;-63
2022/05/20 08:20:10;;;;;;;;;;;;;;;;;;5097323;28;19994;-62
2022/05/20 08:22:36;;;;;;;;;;;;;;;;;;5085418;28;19946;-67
2022/05/20 08:25:02;;;;;;;;;;;;;;;;;;5106354;28;19940;-67
2022/05/20 08:27:29;;;;;;;;;;;;;;;;;;5108703;28;19923;-68
2022/05/20 08:29:55;;;;;;;;;;;;;;;;;;5103516;28;19951;-68
2022/05/20 08:32:21;;;;;;;;;;;;;;;;;;5104525;28;19981;-67
2022/05/20 08:34:47;;;;;;;;;;;;;;;;;;5095038;28;19920;-66
2022/05/20 08:37:13;;;;;;;;;;;;;;;;;;5098518;28;19925;-67
2022/05/20 08:39:39;;;;;;;;;;;;;;;;;;5100731;28;19927;-68
2022/05/20 08:42:05;;;;;;;;;;;;;;;;;;5084853;28;19927;-68
2022/05/20 08:44:31;;;;;;;;;;;;;;;;;;5101143;28;19928;-68
2022/05/20 08:46:57;;;;;;;;;;;;;;;;;;5099742;28;19919;-68
2022/05/20 08:49:23;;;;;;;;;;;;;;;;;;5100991;28;19942;-68
2022/05/20 08:51:49;;;;;;;;;;;;;;;;;;5095852;28;19983;-67
2022/05/20 08:54:15;;;;;;;;;;;;;;;;;;5113237;28;19930;-68
2022/05/20 08:56:41;;;;;;;;;;;;;;;;;;5114244;28;20002;-68
2022/05/20 08:59:08;;;;;;;;;;;;;;;;;;5078104;28;20007;-69
2022/05/20 09:01:34;;;;;;;;;;;;;;;;;;5092175;28;20112;-66
2022/05/20 09:04:01;;;;;;;;;;;;;;;;;;5093206;28;19973;-67
2022/05/20 09:06:27;;;;;;;;;;;;;;;;;;5109820;28;19927;-68
2022/05/20 09:08:52;;;;;;;;;;;;;;;;;;5109093;28;19920;-68
2022/05/20 09:11:19;;;;;;;;;;;;;;;;;;5103301;28;19927;-69
2022/05/20 09:16:29;;;;;;;;;;;;;;;;;;5126311;28;19926;-68
2022/05/20 09:18:56;;;;;;;;;;;;;;;;;;5093407;28;20003;-68
2022/05/20 09:21:22;;;;;;;;;;;;;;;;;;5098303;28;19930;-68
2022/05/20 09:23:48;;;;;;;;;;;;;;;;;;5102057;28;19964;-68
2022/05/20 09:26:16;;;;;;;;;;;;;;;;;;5097660;28;19975;-69
2022/05/20 09:28:42;;;;;;;;;;;;;;;;;;5105760;28;19928;-68
2022/05/20 09:31:08;;;;;;;;;;;;;;;;;;5105417;28;20294;-68
2022/05/20 09:33:34;;;;;;;;;;;;;;;;;;5105209;28;20389;-69
2022/05/20 09:36:00;;;;;;;;;;;;;;;;;;5105471;28;19958;-68
2022/05/20 09:38:26;;;;;;;;;;;;;;;;;;5121302;28;20007;-68
2022/05/20 09:40:52;;;;;;;;;;;;;;;;;;5121132;28;19944;-68
2022/05/20 09:43:18;;;;;;;;;;;;;;;;;;5105184;28;19931;-68
2022/05/20 09:45:44;;;;;;;;;;;;;;;;;;5105450;28;20014;-68
2022/05/20 09:48:10;;;;;;;;;;;;;;;;;;5091863;28;19974;-68
2022/05/20 09:50:38;;;;;;;;;;;;;;;;;;5105263;28;20010;-68
2022/05/20 09:53:04;;;;;;;;;;;;;;;;;;5105240;28;19970;-68
2022/05/20 09:55:31;;;;;;;;;;;;;;;;;;5105285;28;19920;-68
2022/05/20 09:57:57;;;;;;;;;;;;;;;;;;5105158;28;19920;-68
2022/05/20 10:00:26;;;;;;;;;;;;;;;;;;5104765;28;19927;-68
2022/05/20 10:02:52;;;;;;;;;;;;;;;;;;5104959;28;20455;-68
2022/05/20 10:05:18;;;;;;;;;;;;;;;;;;5104952;28;19924;-69
2022/05/20 10:07:44;;;;;;;;;;;;;;;;;;5105185;28;19919;-68
2022/05/20 10:10:10;;;;;;;;;;;;;;;;;;5105019;28;19927;-68
2022/05/20 10:12:36;;;;;;;;;;;;;;;;;;5105204;28;19920;-68
2022/05/20 10:15:02;;;;;;;;;;;;;;;;;;5103029;28;19920;-68
2022/05/20 10:17:28;;;;;;;;;;;;;;;;;;5104177;28;19924;-68
2022/05/20 10:19:54;;;;;;;;;;;;;;;;;;5104708;28;19920;-68
2022/05/20 10:22:21;;;;;;;;;;;;;;;;;;5105239;28;19920;-69
2022/05/20 10:24:47;;;;;;;;;;;;;;;;;;5104784;28;19931;-68
2022/05/20 10:27:13;;;;;;;;;;;;;;;;;;5104944;28;19920;-68
2022/05/20 10:32:36;;;;;;;;;;;;;;;;;;5104175;28;19920;-68
2022/05/20 10:35:02;;;;;;;;;;;;;;;;;;5104846;28;20090;-67
2022/05/20 10:37:28;;;;;;;;;;;;;;;;;;5104508;28;20086;-67
2022/05/20 10:39:54;;;;;;;;;;;;;;;;;;5104619;28;19920;-67
2022/05/20 10:42:20;;;;;;;;;;;;;;;;;;5104658;28;19927;-66
2022/05/20 10:50:15;;;;;;;;;;;;;;;;;;5104644;28;19920;-66
2022/05/20 10:52:42;;;;;;;;;;;;;;;;;;5104674;28;19941;-66
2022/05/20 10:55:09;;;;;;;;;;;;;;;;;;5104445;28;19924;-66
2022/05/20 10:57:35;;;;;;;;;;;;;;;;;;5104662;28;19946;-67
2022/05/20 11:00:03;;;;;;;;;;;;;;;;;;5104672;28;19927;-66
2022/05/20 11:02:29;;;;;;;;;;;;;;;;;;5104131;28;19919;-66
2022/05/20 11:04:55;;;;;;;;;;;;;;;;;;5104460;28;20737;-66
2022/05/20 11:07:21;;;;;;;;;;;;;;;;;;5104573;28;20289;-66
2022/05/20 11:09:47;;;;;;;;;;;;;;;;;;5104162;28;19920;-66
2022/05/20 11:12:13;;;;;;;;;;;;;;;;;;5079441;28;19965;-66
2022/05/20 11:14:39;;;;;;;;;;;;;;;;;;5100303;28;20053;-65
2022/05/20 11:17:05;;;;;;;;;;;;;;;;;;5101342;28;19964;-66
2022/05/20 11:19:31;;;;;;;;;;;;;;;;;;5104617;28;19931;-68
2022/05/20 11:21:57;;;;;;;;;;;;;;;;;;5104950;28;19920;-69
2022/05/20 11:24:26;;;;;;;;;;;;;;;;;;5104732;28;20394;-70
2022/05/20 11:26:52;;;;;;;;;;;;;;;;;;5104529;28;19920;-71
2022/05/20 11:29:18;;;;;;;;;;;;;;;;;;5107972;28;19924;-70
2022/05/20 11:31:45;;;;;;;;;;;;;;;;;;5108146;28;19920;-69
2022/05/20 11:34:12;;;;;;;;;;;;;;;;;;5107950;28;19935;-69
2022/05/20 11:36:38;;;;;;;;;;;;;;;;;;5106881;28;19963;-69
2022/05/20 11:39:04;;;;;;;;;;;;;;;;;;5093976;28;19992;-70
2022/05/20 11:41:31;;;;;;;;;;;;;;;;;;5106830;28;19959;-70
2022/05/20 11:44:00;;;;;;;;;;;;;;;;;;5104462;28;19927;-69
2022/05/20 11:46:26;;;;;;;;;;;;;;;;;;5106088;28;19919;-70
2022/05/20 11:48:52;;;;;;;;;;;;;;;;;;5107200;28;19927;-70
2022/05/20 11:51:18;;;;;;;;;;;;;;;;;;5107459;28;19924;-69
2022/05/20 11:53:44;;;;;;;;;;;;;;;;;;5107451;28;19920;-69
2022/05/20 11:56:10;;;;;;;;;;;;;;;;;;5085632;28;19921;-70
2022/05/20 11:58:36;;;;;;;;;;;;;;;;;;5096804;28;19981;-70
2022/05/20 12:01:02;;;;;;;;;;;;;;;;;;5106793;28;20006;-69
2022/05/20 12:03:28;;;;;;;;;;;;;;;;;;5107314;28;19924;-70
2022/05/20 12:05:54;;;;;;;;;;;;;;;;;;5123254;28;19924;-70
2022/05/20 12:08:20;;;;;;;;;;;;;;;;;;5107160;28;19945;-69
2022/05/20 12:10:46;;;;;;;;;;;;;;;;;;5107189;28;19919;-70
2022/05/20 12:13:13;;;;;;;;;;;;;;;;;;5106739;28;19927;-69
2022/05/20 12:15:40;;;;;;;;;;;;;;;;;;5106472;28;19927;-70
2022/05/20 12:18:06;;;;;;;;;;;;;;;;;;5101256;28;19920;-70
2022/05/20 12:26:03;;;;;;;;;;;;;;;;;;5106567;28;19968;-62
2022/05/20 12:28:29;;;;;;;;;;;;;;;;;;5106913;28;19927;-68
2022/05/20 12:30:55;;;;;;;;;;;;;;;;;;5119356;28;19920;-68
2022/05/20 12:33:21;;;;;;;;;;;;;;;;;;5120626;28;19925;-68
2022/05/20 12:35:47;;;;;;;;;;;;;;;;;;5106817;28;19973;-68
2022/05/20 12:38:13;;;;;;;;;;;;;;;;;;5106959;28;19920;-66
2022/05/20 12:40:39;;;;;;;;;;;;;;;;;;5106308;28;19920;-67
2022/05/20 12:43:05;;;;;;;;;;;;;;;;;;5106370;28;19920;-65
2022/05/20 12:45:31;;;;;;;;;;;;;;;;;;5106665;28;19966;-71
2022/05/20 12:47:57;;;;;;;;;;;;;;;;;;5088557;28;19920;-69
2022/05/20 12:50:23;;;;;;;;;;;;;;;;;;5106520;28;20020;-68
2022/05/20 12:52:49;;;;;;;;;;;;;;;;;;5088603;28;20616;-70
2022/05/20 12:55:15;;;;;;;;;;;;;;;;;;5103310;28;20283;-68
2022/05/20 12:57:41;;;;;;;;;;;;;;;;;;5100241;28;19920;-68
2022/05/20 13:00:07;;;;;;;;;;;;;;;;;;5105936;28;19927;-68
2022/05/20 13:02:33;;;;;;;;;;;;;;;;;;5093883;28;19920;-68
2022/05/20 13:04:59;;;;;;;;;;;;;;;;;;5085191;28;19982;-68
2022/05/20 13:07:25;;;;;;;;;;;;;;;;;;5089913;28;19920;-69
2022/05/20 13:09:51;;;;;;;;;;;;;;;;;;5099299;28;19927;-68
2022/05/20 13:12:18;;;;;;;;;;;;;;;;;;5096411;28;19920;-68
2022/05/20 13:14:44;;;;;;;;;;;;;;;;;;5095622;28;19928;-69
2022/05/20 13:17:10;;;;;;;;;;;;;;;;;;5085326;28;19983;-67
2022/05/20 13:19:36;;;;;;;;;;;;;;;;;;5083451;28;19983;-69
2022/05/20 13:22:02;;;;;;;;;;;;;;;;;;5106190;28;20379;-66
2022/05/20 13:24:28;;;;;;;;;;;;;;;;;;5106116;28;19924;-61
2022/05/20 13:26:55;;;;;;;;;;;;;;;;;;5106076;28;19920;-73
2022/05/20 13:29:21;;;;;;;;;;;;;;;;;;5106160;28;20370;-73
2022/05/20 13:31:47;;;;;;;;;;;;;;;;;;5105058;28;19919;-74
2022/05/20 13:34:14;;;;;;;;;;;;;;;;;;5078275;28;19921;-73
2022/05/20 13:36:40;;;;;;;;;;;;;;;;;;5076962;28;19974;-74
2022/05/20 13:39:07;;;;;;;;;;;;;;;;;;5079725;28;19924;-74
2022/05/20 13:41:33;;;;;;;;;;;;;;;;;;5085287;28;19927;-73
2022/05/20 13:44:01;;;;;;;;;;;;;;;;;;5087557;28;19980;-73
2022/05/20 13:49:15;;;;;;;;;;;;;;;;;;5084973;28;20383;-73
2022/05/20 13:51:41;;;;;;;;;;;;;;;;;;5082448;28;19969;-73
2022/05/20 13:54:08;;;;;;;;;;;;;;;;;;5085068;28;19997;-74
2022/05/20 13:56:34;;;;;;;;;;;;;;;;;;5067060;28;19943;-74
2022/05/20 13:59:00;;;;;;;;;;;;;;;;;;5085224;28;19920;-73
2022/05/20 14:01:26;;;;;;;;;;;;;;;;;;5092923;28;19920;-74
2022/05/20 14:03:52;;;;;;;;;;;;;;;;;;5104938;28;19995;-74
2022/05/20 14:06:18;;;;;;;;;;;;;;;;;;5105281;28;19924;-75
2022/05/20 14:08:45;;;;;;;;;;;;;;;;;;5105101;28;19926;-72
2022/05/20 14:11:11;;;;;;;;;;;;;;;;;;5104644;28;19927;-72
2022/05/20 14:13:37;;;;;;;;;;;;;;;;;;5096136;28;19920;-73
2022/05/20 14:16:03;;;;;;;;;;;;;;;;;;5092076;28;19920;-73
2022/05/20 14:18:29;;;;;;;;;;;;;;;;;;5120856;28;19941;-75
2022/05/20 14:20:55;;;;;;;;;;;;;;;;;;5098946;28;19921;-74
2022/05/20 14:23:21;;;;;;;;;;;;;;;;;;5105087;28;19983;-74
2022/05/20 14:25:47;;;;;;;;;;;;;;;;;;5104922;28;19919;-75
2022/05/20 14:28:14;;;;;;;;;;;;;;;;;;5104662;28;19920;-75
2022/05/20 14:30:40;;;;;;;;;;;;;;;;;;5104658;28;19927;-75
2022/05/20 14:33:06;;;;;;;;;;;;;;;;;;5104253;28;19920;-75
2022/05/20 14:35:32;;;;;;;;;;;;;;;;;;5104683;28;19930;-74
2022/05/20 14:37:58;;;;;;;;;;;;;;;;;;5104389;28;20082;-75
2022/05/20 14:40:24;;;;;;;;;;;;;;;;;;5104443;28;20001;-74
2022/05/20 14:42:50;;;;;;;;;;;;;;;;;;5095356;28;19975;-75
2022/05/20 14:45:16;;;;;;;;;;;;;;;;;;5091517;28;20046;-75
2022/05/20 14:47:42;;;;;;;;;;;;;;;;;;5093730;28;19920;-75
2022/05/20 14:50:08;;;;;;;;;;;;;;;;;;5104719;28;20182;-76
2022/05/20 14:52:34;;;;;;;;;;;;;;;;;;5099586;28;20085;-75
2022/05/20 14:55:00;;;;;;;;;;;;;;;;;;5100334;28;19920;-76
2022/05/20 14:57:26;;;;;;;;;;;;;;;;;;5084690;28;20001;-76
2022/05/20 14:59:52;;;;;;;;;;;;;;;;;;5094101;28;20115;-75
2022/05/20 15:02:18;;;;;;;;;;;;;;;;;;5089292;28;19921;-74
2022/05/20 15:04:44;;;;;;;;;;;;;;;;;;5088332;28;19927;-74
2022/05/20 15:07:10;;;;;;;;;;;;;;;;;;5088126;28;19921;-73
2022/05/20 15:09:36;;;;;;;;;;;;;;;;;;5088095;28;20488;-72
2022/05/20 15:12:02;;;;;;;;;;;;;;;;;;5088260;28;20469;-73
2022/05/20 15:14:28;;;;;;;;;;;;;;;;;;5086052;28;19924;-62
2022/05/20 15:16:57;;;;;;;;;;;;;;;;;;5081650;28;20528;-62
2022/05/20 15:19:23;;;;;;;;;;;;;;;;;;5071514;28;20299;-62
2022/05/20 15:21:50;;;;;;;;;;;;;;;;;;5087082;28;19930;-63
2022/05/20 15:24:16;;;;;;;;;;;;;;;;;;5087732;28;20011;-62
2022/05/20 15:26:42;;;;;;;;;;;;;;;;;;5087075;28;20291;-63
2022/05/20 15:29:08;;;;;;;;;;;;;;;;;;5087181;28;20368;-63
2022/05/20 15:37:03;;;;;;;;;;;;;;;;;;5086624;28;19928;-62
2022/05/20 15:39:29;;;;;;;;;;;;;;;;;;5085980;28;19935;-62
2022/05/20 15:41:55;;;;;;;;;;;;;;;;;;5086264;28;19960;-64
2022/05/20 15:44:21;;;;;;;;;;;;;;;;;;5085717;28;19920;-62
2022/05/20 15:46:47;;;;;;;;;;;;;;;;;;5086430;28;19927;-61
2022/05/20 15:49:13;;;;;;;;;;;;;;;;;;5086957;28;19921;-63
2022/05/20 15:51:39;;;;;;;;;;;;;;;;;;5086101;28;19932;-62
2022/05/20 15:54:05;;;;;;;;;;;;;;;;;;5085392;28;20327;-63
2022/05/20 15:56:32;;;;;;;;;;;;;;;;;;5082126;28;19931;-63
2022/05/20 15:59:01;;;;;;;;;;;;;;;;;;5079547;28;19935;-62
2022/05/20 16:01:27;;;;;;;;;;;;;;;;;;5082708;28;19993;-63
2022/05/20 16:03:53;;;;;;;;;;;;;;;;;;5105914;28;19923;-63
2022/05/20 16:06:19;;;;;;;;;;;;;;;;;;5103479;28;20018;-63
2022/05/20 16:08:45;;;;;;;;;;;;;;;;;;5108414;28;19923;-64
2022/05/20 16:11:11;;;;;;;;;;;;;;;;;;5123173;28;20002;-63
2022/05/20 16:13:37;;;;;;;;;;;;;;;;;;5117930;28;19956;-63
2022/05/20 16:16:03;;;;;;;;;;;;;;;;;;5104026;28;19978;-63
2022/05/20 16:18:29;;;;;;;;;;;;;;;;;;5109230;28;19950;-63
2022/05/20 16:20:56;;;;;;;;;;;;;;;;;;5105394;28;19920;-63
2022/05/20 16:23:22;;;;;;;;;;;;;;;;;;5104921;28;19928;-62
2022/05/20 16:25:48;;;;;;;;;;;;;;;;;;5105014;28;19991;-62
2022/05/20 16:28:14;;;;;;;;;;;;;;;;;;5108768;28;19920;-62
2022/05/20 16:30:40;;;;;;;;;;;;;;;;;;5104503;28;19941;-62
2022/05/20 16:33:06;;;;;;;;;;;;;;;;;;5125399;28;19949;-61
2022/05/20 16:35:35;;;;;;;;;;;;;;;;;;5113710;28;19920;-61
2022/05/20 16:38:01;;;;;;;;;;;;;;;;;;5110959;28;19920;-61
2022/05/20 16:40:27;;;;;;;;;;;;;;;;;;5108700;28;19939;-61
2022/05/20 16:42:54;;;;;;;;;;;;;;;;;;5125544;28;19924;-61
2022/05/20 16:45:24;;;;;;;;;;;;;;;;;;5130332;27;19920;-61
2022/05/20 16:47:50;;;;;;;;;;;;;;;;;;5117080;27;20364;-61
2022/05/20 16:50:16;;;;;;;;;;;;;;;;;;5122951;27;19919;-61
2022/05/20 16:52:42;;;;;;;;;;;;;;;;;;5122732;27;19919;-61
2022/05/20 16:55:08;;;;;;;;;;;;;;;;;;5126699;27;19928;-61
2022/05/20 17:03:03;;;;;;;;;;;;;;;;;;5112817;27;20379;-62
2022/05/20 17:05:29;;;;;;;;;;;;;;;;;;5124588;27;19966;-62
2022/05/20 17:07:55;;;;;;;;;;;;;;;;;;5126988;27;19919;-62
2022/05/20 17:10:22;;;;;;;;;;;;;;;;;;5115346;27;19919;-62
2022/05/20 17:12:48;;;;;;;;;;;;;;;;;;5123437;27;19927;-62
2022/05/20 17:15:14;;;;;;;;;;;;;;;;;;5120132;27;19920;-62
2022/05/20 17:17:40;;;;;;;;;;;;;;;;;;5113149;27;20307;-61
2022/05/20 17:20:06;;;;;;;;;;;;;;;;;;5112073;28;19973;-61
2022/05/20 17:25:16;;;;;;;;;;;;;;;;;;5120448;27;19919;-61
2022/05/20 17:27:42;;;;;;;;;;;;;;;;;;5121135;27;20022;-62
2022/05/20 17:30:08;;;;;;;;;;;;;;;;;;5126208;27;19971;-62
2022/05/20 17:32:34;;;;;;;;;;;;;;;;;;5125232;27;19926;-62